Time;durP1;ratioP1;P1;durP2;ratioP2;P2;SDS_P1;SDS_P2;PMS_P1;PMS_P2;Temp;Humidity;BMP_temperature;BMP_pressure;BME280_temperature;BME280_humidity;BME280_pressure;Samples;Min_cycle;Max_cycle;Signal;HPM_P1;HPM_P2
2023/11/13 00:00:47;;;;;;;36.45;25.73;;;;;;;;;;5115172;28;20118;-68
2023/11/13 00:03:51;;;;;;;60.78;27.25;;;;;;;;;;5115203;28;20035;-69
2023/11/13 00:06:58;;;;;;;40.50;27.23;;;;;;;;;;5115330;28;20050;-69
2023/11/13 00:10:03;;;;;;;89.20;28.15;;;;;;;;;;5115247;28;20497;-69
2023/11/13 00:13:10;;;;;;;200.48;30.83;;;;;;;;;;5114911;28;20043;-69
2023/11/13 00:16:15;;;;;;;92.60;29.13;;;;;;;;;;5115315;28;20387;-69
2023/11/13 00:19:19;;;;;;;33.88;23.77;;;;;;;;;;5114694;28;20081;-68
2023/11/13 00:22:23;;;;;;;25.92;22.17;;;;;;;;;;5114984;28;20047;-69
2023/11/13 00:25:27;;;;;;;32.83;23.00;;;;;;;;;;5114887;28;20038;-68
2023/11/13 00:28:34;;;;;;;34.40;23.88;;;;;;;;;;5114756;28;20046;-69
2023/11/13 00:31:39;;;;;;;27.50;23.20;;;;;;;;;;5114820;28;20050;-69
2023/11/13 00:34:43;;;;;;;26.95;24.05;;;;;;;;;;5115382;28;20047;-69
2023/11/13 00:37:50;;;;;;;26.90;23.95;;;;;;;;;;5113793;28;20125;-69
2023/11/13 00:40:54;;;;;;;31.20;25.27;;;;;;;;;;5114679;28;20043;-69
2023/11/13 00:44:02;;;;;;;40.28;30.50;;;;;;;;;;5114800;28;20034;-69
2023/11/13 00:47:07;;;;;;;350.30;37.70;;;;;;;;;;5114850;28;20046;-68
2023/11/13 00:50:11;;;;;;;39.33;31.17;;;;;;;;;;5114463;28;20215;-69
2023/11/13 00:53:15;;;;;;;77.30;29.95;;;;;;;;;;5114650;28;20043;-68
2023/11/13 00:56:20;;;;;;;51.05;28.95;;;;;;;;;;5114356;28;20054;-68
2023/11/13 00:59:24;;;;;;;58.60;27.45;;;;;;;;;;5114471;28;20189;-68
2023/11/13 01:02:29;;;;;;;51.55;25.70;;;;;;;;;;5114407;28;20407;-69
2023/11/13 01:05:33;;;;;;;200.73;28.73;;;;;;;;;;5113281;28;20042;-69
2023/11/13 01:08:37;;;;;;;71.68;27.45;;;;;;;;;;5113971;28;20042;-69
2023/11/13 01:11:42;;;;;;;67.35;24.80;;;;;;;;;;5114166;28;20523;-69
2023/11/13 01:14:47;;;;;;;25.25;22.33;;;;;;;;;;5114032;28;20035;-69
2023/11/13 01:17:51;;;;;;;22.45;20.00;;;;;;;;;;5114169;28;20042;-69
2023/11/13 01:20:55;;;;;;;21.92;19.52;;;;;;;;;;5113170;28;20062;-68
2023/11/13 01:23:59;;;;;;;22.80;20.35;;;;;;;;;;5112897;28;20039;-68
2023/11/13 01:27:04;;;;;;;22.77;19.67;;;;;;;;;;5113991;28;20070;-68
2023/11/13 01:30:09;;;;;;;20.80;18.70;;;;;;;;;;5113494;28;20062;-68
2023/11/13 01:33:14;;;;;;;23.10;19.35;;;;;;;;;;5112819;28;20506;-68
2023/11/13 01:36:19;;;;;;;22.55;20.25;;;;;;;;;;5112715;28;20043;-68
2023/11/13 01:39:23;;;;;;;26.00;21.98;;;;;;;;;;5112799;28;20514;-68
2023/11/13 01:42:27;;;;;;;25.52;22.20;;;;;;;;;;5112822;28;20648;-68
2023/11/13 01:45:32;;;;;;;36.58;23.45;;;;;;;;;;5113542;28;20043;-68
2023/11/13 01:48:36;;;;;;;31.15;23.85;;;;;;;;;;5112813;28;20054;-68
2023/11/13 01:51:41;;;;;;;35.83;23.40;;;11.60;99.90;;;;;;5112533;28;20047;-68
2023/11/13 01:54:45;;;;;;;29.00;24.10;;;;;;;;;;5113218;28;20506;-68
2023/11/13 01:57:50;;;;;;;32.78;24.95;;;;;;;;;;5113262;28;20042;-68
2023/11/13 02:00:54;;;;;;;28.40;23.00;;;;;;;;;;5112365;28;20372;-68
2023/11/13 02:03:59;;;;;;;27.98;22.73;;;;;;;;;;5112997;28;20042;-69
2023/11/13 02:07:04;;;;;;;40.85;22.75;;;;;;;;;;5112365;28;20085;-69
2023/11/13 02:10:09;;;;;;;32.45;24.08;;;11.50;99.90;;;;;;5112612;28;20059;-69
2023/11/13 02:13:14;;;;;;;102.05;25.98;;;11.70;99.90;;;;;;5112119;28;20494;-69
2023/11/13 02:16:19;;;;;;;117.55;27.63;;;;;;;;;;5112940;28;20063;-68
2023/11/13 02:19:23;;;;;;;41.65;25.88;;;;;;;;;;5113049;28;20486;-68
2023/11/13 02:22:28;;;;;;;76.25;27.05;;;;;;;;;;5111664;28;20240;-69
2023/11/13 02:25:37;;;;;;;28.13;22.85;;;11.80;99.90;;;;;;5111739;28;20118;-68
2023/11/13 02:28:42;;;;;;;28.63;22.75;;;11.60;99.90;;;;;;5112818;28;20148;-68
2023/11/13 02:31:54;;;;;;;26.55;21.73;;;11.70;99.90;;;;;;5112340;28;20051;-68
2023/11/13 02:34:59;;;;;;;24.15;20.85;;;;;;;;;;5112488;28;20062;-68
2023/11/13 02:38:05;;;;;;;24.92;20.73;;;;;;;;;;5112679;28;20447;-68
2023/11/13 02:41:09;;;;;;;24.08;20.70;;;;;;;;;;5111683;28;20593;-68
2023/11/13 02:44:14;;;;;;;22.38;19.95;;;11.90;99.90;;;;;;5112231;28;20047;-68
2023/11/13 02:47:19;;;;;;;27.40;21.65;;;;;;;;;;5112478;28;20479;-68
2023/11/13 02:50:27;;;;;;;25.30;20.25;;;;;;;;;;5111799;28;20051;-68
2023/11/13 02:53:31;;;;;;;22.25;19.88;;;;;;;;;;5111097;28;20046;-68
2023/11/13 02:56:36;;;;;;;24.00;19.23;;;;;;;;;;5112254;28;20502;-69
2023/11/13 02:59:40;;;;;;;24.35;19.50;;;;;;;;;;5111064;28;20047;-68
2023/11/13 03:02:44;;;;;;;24.80;20.02;;;;;;;;;;5112134;28;20066;-68
2023/11/13 03:05:48;;;;;;;21.10;18.83;;;;;;;;;;5112092;28;20054;-69
2023/11/13 03:08:53;;;;;;;21.48;19.08;;;;;;;;;;5111982;28;20054;-69
2023/11/13 03:11:57;;;;;;;21.73;19.45;;;;;;;;;;5110943;28;20054;-69
2023/11/13 03:15:01;;;;;;;24.48;19.63;;;;;;;;;;5111991;28;20455;-69
2023/11/13 03:18:06;;;;;;;23.40;19.23;;;;;;;;;;5111887;28;20051;-69
2023/11/13 03:21:10;;;;;;;22.85;19.90;;;;;;;;;;5111776;28;20039;-69
2023/11/13 03:24:14;;;;;;;22.55;18.58;;;;;;;;;;5111509;28;20039;-68
2023/11/13 03:27:18;;;;;;;21.48;18.60;;;;;;;;;;5111775;28;20051;-68
2023/11/13 03:30:23;;;;;;;20.30;18.13;;;;;;;;;;5111410;28;20058;-68
2023/11/13 03:33:27;;;;;;;21.48;18.48;;;;;;;;;;5111421;28;20117;-68
2023/11/13 03:36:32;;;;;;;21.67;19.33;;;;;;;;;;5111567;28;20376;-70
2023/11/13 03:39:36;;;;;;;22.67;19.83;;;;;;;;;;5111456;28;20035;-69
2023/11/13 03:42:40;;;;;;;26.38;19.83;;;;;;;;;;5111367;28;20050;-69
2023/11/13 03:45:44;;;;;;;22.58;18.98;;;;;;;;;;5111453;28;20051;-69
2023/11/13 03:48:49;;;;;;;19.40;17.35;;;;;;;;;;5111426;28;20039;-68
2023/11/13 03:51:54;;;;;;;21.02;18.80;;;;;;;;;;5111394;28;20062;-68
2023/11/13 03:54:58;;;;;;;21.77;18.55;;;;;;;;;;5111358;28;20047;-68
2023/11/13 03:58:03;;;;;;;20.35;17.75;;;;;;;;;;5111243;28;20054;-68
2023/11/13 04:01:08;;;;;;;19.52;17.25;;;11.60;99.90;;;;;;5111882;28;20105;-69
2023/11/13 04:04:14;;;;;;;19.73;17.63;;;;;;;;;;5111126;28;20046;-69
2023/11/13 04:07:20;;;;;;;19.80;17.73;;;;;;;;;;5111316;28;20043;-69
2023/11/13 04:10:27;;;;;;;20.27;18.10;;;;;;;;;;5110070;28;20054;-69
2023/11/13 04:13:34;;;;;;;20.48;18.30;;;10.90;99.90;;;;;;5110460;28;20043;-69
2023/11/13 04:16:39;;;;;;;20.13;18.02;;;;;;;;;;5110409;28;20054;-69
2023/11/13 04:19:43;;;;;;;20.05;18.05;;;;;;;;;;5111178;28;20109;-69
2023/11/13 04:22:48;;;;;;;19.20;17.20;;;11.00;99.90;;;;;;5110995;28;20494;-69
2023/11/13 04:25:53;;;;;;;20.02;17.63;;;;;;;;;;5111242;28;20054;-69
2023/11/13 04:28:57;;;;;;;21.25;18.30;;;;;;;;;;5111173;28;20043;-69
2023/11/13 04:32:01;;;;;;;21.10;18.17;;;;;;;;;;5110786;28;20506;-69
2023/11/13 04:35:06;;;;;;;19.17;17.20;;;;;;;;;;5111162;28;20030;-69
2023/11/13 04:38:10;;;;;;;18.38;16.35;;;;;;;;;;5110754;28;20047;-69
2023/11/13 04:41:16;;;;;;;18.30;16.45;;;;;;;;;;5110830;28;20062;-69
2023/11/13 04:44:20;;;;;;;17.83;16.05;;;;;;;;;;5112386;28;20058;-69
2023/11/13 04:47:24;;;;;;;17.30;15.60;;;;;;;;;;5113791;28;20050;-69
2023/11/13 04:50:31;;;;;;;18.75;16.38;;;;;;;;;;5114345;28;20062;-69
2023/11/13 04:53:35;;;;;;;16.75;15.07;;;;;;;;;;5114627;28;20542;-69
2023/11/13 04:56:39;;;;;;;18.60;15.07;;;;;;;;;;5114693;28;20395;-69
2023/11/13 04:59:44;;;;;;;16.15;14.45;;;;;;;;;;5114560;28;20487;-69
2023/11/13 05:02:48;;;;;;;15.90;14.32;;;;;;;;;;5114937;28;20046;-69
2023/11/13 05:05:52;;;;;;;16.88;15.00;;;;;;;;;;5114125;28;20490;-69
2023/11/13 05:08:57;;;;;;;16.48;14.82;;;;;;;;;;5114532;28;20395;-69
2023/11/13 05:12:01;;;;;;;16.27;14.57;;;;;;;;;;5114504;28;20054;-69
2023/11/13 05:15:06;;;;;;;15.88;14.18;;;;;;;;;;5114114;28;20043;-68
2023/11/13 05:18:10;;;;;;;14.75;13.35;;;;;;;;;;5113855;28;20153;-68
2023/11/13 05:21:15;;;;;;;17.80;14.30;;;11.40;99.90;;;;;;5113560;28;20376;-68
2023/11/13 05:24:19;;;;;;;17.25;14.23;;;;;;;;;;5113858;28;20055;-68
2023/11/13 05:27:23;;;;;;;16.02;14.38;;;;;;;;;;5113771;28;20043;-68
2023/11/13 05:30:27;;;;;;;19.33;15.90;;;;;;;;;;5113262;28;20054;-68
2023/11/13 05:33:32;;;;;;;17.90;15.35;;;;;;;;;;5113689;28;20047;-68
2023/11/13 05:36:36;;;;;;;21.15;17.00;;;;;;;;;;5113715;28;20035;-68
2023/11/13 05:39:41;;;;;;;19.23;17.10;;;;;;;;;;5113629;28;20438;-69
2023/11/13 05:42:45;;;;;;;20.10;17.98;;;;;;;;;;5113643;28;20039;-69
2023/11/13 05:45:49;;;;;;;20.80;16.52;;;;;;;;;;5113550;28;20042;-68
2023/11/13 05:48:56;;;;;;;22.13;16.73;;;;;;;;;;5113562;28;20054;-68
2023/11/13 05:52:00;;;;;;;23.02;19.05;;;;;;;;;;5112334;28;20054;-68
2023/11/13 05:55:05;;;;;;;17.90;14.43;;;;;;;;;;5112352;28;20038;-68
2023/11/13 05:58:09;;;;;;;17.27;14.80;;;;;;;;;;5113330;28;20047;-69
2023/11/13 06:01:17;;;;;;;17.88;13.95;;;11.00;99.90;;;;;;5113107;28;20042;-68
2023/11/13 06:04:21;;;;;;;19.42;14.60;;;;;;;;;;5112823;28;20398;-68
2023/11/13 06:07:26;;;;;;;17.50;13.82;;;;;;;;;;5112858;28;20053;-68
2023/11/13 06:10:30;;;;;;;15.00;13.40;;;;;;;;;;5112833;28;20050;-68
2023/11/13 06:13:37;;;;;;;16.92;14.70;;;;;;;;;;5113091;28;20039;-68
2023/11/13 06:16:42;;;;;;;17.73;13.85;;;;;;;;;;5112777;28;20403;-68
2023/11/13 06:19:46;;;;;;;15.52;12.40;;;;;;;;;;5112762;28;20106;-69
2023/11/13 06:22:51;;;;;;;16.60;13.18;;;;;;;;;;5112757;28;20047;-69
2023/11/13 06:25:55;;;;;;;19.52;14.43;;;;;;;;;;5112604;28;20042;-70
2023/11/13 06:29:00;;;;;;;25.02;15.30;;;;;;;;;;5112510;28;20051;-69
2023/11/13 06:32:05;;;;;;;18.30;14.43;;;;;;;;;;5112002;28;20062;-69
2023/11/13 06:35:11;;;;;;;18.02;13.38;;;;;;;;;;5112408;28;20047;-70
2023/11/13 06:38:15;;;;;;;25.27;14.88;;;;;;;;;;5112433;28;20055;-70
2023/11/13 06:41:20;;;;;;;19.92;14.70;;;;;;;;;;5112353;28;20506;-70
2023/11/13 06:44:24;;;;;;;22.33;16.27;;;;;;;;;;5112258;28;20050;-70
2023/11/13 06:47:28;;;;;;;24.98;15.15;;;;;;;;;;5111791;28;20043;-70
2023/11/13 06:50:33;;;;;;;19.05;15.07;;;;;;;;;;5111627;28;20051;-72
2023/11/13 06:53:37;;;;;;;26.13;16.75;;;;;;;;;;5112034;28;20063;-72
2023/11/13 06:56:41;;;;;;;24.77;17.80;;;;;;;;;;5112160;28;20054;-71
2023/11/13 06:59:47;;;;;;;18.13;14.68;;;11.30;99.90;;;;;;5111646;28;20038;-71
2023/11/13 07:02:52;;;;;;;17.50;13.68;;;;;;;;;;5111772;28;20043;-70
2023/11/13 07:05:56;;;;;;;18.75;14.48;;;;;;;;;;5110660;28;20047;-71
2023/11/13 07:09:00;;;;;;;18.13;12.85;;;;;;;;;;5111381;28;20039;-70
2023/11/13 07:12:05;;;;;;;24.42;12.00;;;;;;;;;;5111158;28;20054;-71
2023/11/13 07:15:11;;;;;;;17.50;12.18;;;;;;;;;;5111539;28;20046;-72
2023/11/13 07:18:15;;;;;;;16.52;11.23;;;;;;;;;;5110854;28;20047;-72
2023/11/13 07:21:21;;;;;;;14.23;11.32;;;;;;;;;;5111356;28;20035;-70
2023/11/13 07:24:25;;;;;;;12.23;9.48;;;;;;;;;;5111145;28;20384;-71
2023/11/13 07:27:30;;;;;;;11.07;8.65;;;13.40;99.90;;;;;;5111508;28;20043;-71
2023/11/13 07:30:37;;;;;;;12.82;9.00;;;;;;;;;;5111021;28;20050;-72
2023/11/13 07:33:41;;;;;;;10.50;9.25;;;;;;;;;;5110740;28;20054;-72
2023/11/13 07:36:49;;;;;;;18.73;9.00;;;;;;;;;;5111354;28;20046;-72
2023/11/13 07:39:53;;;;;;;10.05;7.93;;;;;;;;;;5111115;28;20047;-70
2023/11/13 07:42:57;;;;;;;14.05;7.22;;;;;;;;;;5111150;28;20038;-71
2023/11/13 07:46:01;;;;;;;11.82;7.35;;;;;;;;;;5111330;28;20399;-71
2023/11/13 07:49:08;;;;;;;9.52;7.05;;;;;;;;;;5111318;28;20503;-71
2023/11/13 07:52:15;;;;;;;9.27;6.22;;;;;;;;;;5111045;28;20051;-71
2023/11/13 07:55:19;;;;;;;10.82;6.78;;;;;;;;;;5111412;28;20044;-69
2023/11/13 07:58:25;;;;;;;10.85;6.97;;;;;;;;;;5111137;28;20043;-68
2023/11/13 08:01:29;;;;;;;10.93;7.65;;;;;;;;;;5111245;28;20090;-69
2023/11/13 08:04:34;;;;;;;8.68;6.30;;;;;;;;;;5111267;28;20051;-70
2023/11/13 08:07:42;;;;;;;8.75;6.55;;;16.00;99.90;;;;;;5111115;28;20035;-71
2023/11/13 08:10:47;;;;;;;11.45;8.15;;;;;;;;;;5111002;28;20055;-68
2023/11/13 08:13:53;;;;;;;11.65;7.85;;;;;;;;;;5111087;28;20051;-69
2023/11/13 08:16:58;;;;;;;9.48;6.90;;;;;;;;;;5111139;28;20043;-69
2023/11/13 08:20:08;;;;;;;9.30;7.03;;;;;;;;;;5113188;28;20040;-69
2023/11/13 08:23:16;;;;;;;12.45;6.97;;;;;;;;;;5114240;28;20044;-70
2023/11/13 08:26:22;;;;;;;8.43;6.20;;;;;;;;;;5112036;28;20043;-70
2023/11/13 08:29:27;;;;;;;12.13;7.95;;;;;;;;;;5113080;28;20036;-72
2023/11/13 08:32:33;;;;;;;9.70;7.35;;;;;;;;;;5113759;28;20050;-69
2023/11/13 08:35:38;;;;;;;15.00;7.65;;;;;;;;;;5114317;28;20031;-73
2023/11/13 08:38:42;;;;;;;8.95;6.40;;;;;;;;;;5114551;28;20058;-71
2023/11/13 08:41:46;;;;;;;10.10;6.20;;;;;;;;;;5114393;28;20511;-70
2023/11/13 08:44:51;;;;;;;9.27;6.97;;;;;;;;;;5114520;28;20494;-70
2023/11/13 08:47:55;;;;;;;17.33;6.40;;;;;;;;;;5114017;28;20035;-70
2023/11/13 08:51:00;;;;;;;16.40;7.85;;;;;;;;;;5114510;28;20054;-69
2023/11/13 08:54:04;;;;;;;13.25;7.72;;;;;;;;;;5113228;28;20038;-70
2023/11/13 08:57:11;;;;;;;8.20;6.18;;;;;;;;;;5114410;28;20075;-70
2023/11/13 09:00:20;;;;;;;12.25;6.32;;;;;;;;;;5114015;28;20036;-67
2023/11/13 09:03:29;;;;;;;10.50;6.03;;;;;;;;;;5114007;28;20050;-68
2023/11/13 09:06:35;;;;;;;9.30;5.68;;;;;;;;;;5114027;28;20046;-69
2023/11/13 09:09:39;;;;;;;8.85;4.93;;;;;;;;;;5114024;28;20040;-69
2023/11/13 09:12:44;;;;;;;13.32;5.78;;;;;;;;;;5114051;28;20047;-69
2023/11/13 09:15:49;;;;;;;14.23;5.68;;;;;;;;;;5113255;28;20050;-69
2023/11/13 09:18:54;;;;;;;11.45;5.00;;;;;;;;;;5113909;28;20042;-70
2023/11/13 09:22:00;;;;;;;10.02;4.85;;;;;;;;;;5113783;28;20054;-71
2023/11/13 09:25:04;;;;;;;6.38;4.38;;;;;;;;;;5113551;28;20400;-69
2023/11/13 09:28:09;;;;;;;7.05;4.57;;;;;;;;;;5113905;28;20044;-68
2023/11/13 09:31:14;;;;;;;8.93;4.13;;;;;;;;;;5112208;28;20487;-69
2023/11/13 09:34:18;;;;;;;9.88;4.80;;;;;;;;;;5112845;28;20039;-72
2023/11/13 09:37:22;;;;;;;6.05;4.03;;;;;;;;;;5113675;28;20036;-69
2023/11/13 09:40:31;;;;;;;13.90;5.07;;;19.30;99.90;;;;;;5113339;28;20031;-71
2023/11/13 09:43:39;;;;;;;9.57;5.20;;;18.80;99.90;;;;;;5113847;28;20047;-68
2023/11/13 09:46:44;;;;;;;9.93;4.38;;;18.60;99.90;;;;;;5113664;28;20387;-68
2023/11/13 09:50:15;;;;;;;8.63;4.20;;;19.30;99.90;;;;;;5113616;28;20529;-69
2023/11/13 09:53:25;;;;;;;8.60;3.80;;;19.40;99.90;;;;;;5113713;28;20074;-69
2023/11/13 09:56:30;;;;;;;12.05;3.75;;;18.60;99.90;;;;;;5113319;28;20046;-69
2023/11/13 09:59:36;;;;;;;8.18;3.40;;;19.60;99.90;;;;;;5112941;28;20046;-69
2023/11/13 10:02:41;;;;;;;9.55;3.38;;;;;;;;;;5113092;28;20047;-70
2023/11/13 10:05:45;;;;;;;10.65;3.80;;;19.20;99.90;;;;;;5113159;28;20372;-70
2023/11/13 10:08:53;;;;;;;6.95;3.55;;;;;;;;;;5112954;28;20038;-74
2023/11/13 10:12:02;;;;;;;10.32;3.70;;;20.00;99.90;;;;;;5112395;28;20059;-73
2023/11/13 10:15:13;;;;;;;7.45;3.97;;;;;;;;;;5113017;28;20043;-71
2023/11/13 10:18:26;;;;;;;5.53;3.38;;;20.50;99.40;;;;;;5112942;28;20061;-72
2023/11/13 10:21:33;;;;;;;7.10;3.30;;;20.50;99.30;;;;;;5100139;28;20044;-71
2023/11/13 10:24:37;;;;;;;10.05;3.53;;;;;;;;;;5112830;28;20039;-72
2023/11/13 10:27:46;;;;;;;11.90;4.30;;;;;;;;;;5112688;28;20576;-72
2023/11/13 10:31:00;;;;;;;8.27;3.97;;;21.90;99.00;;;;;;5112026;28;20058;-72
2023/11/13 10:34:05;;;;;;;10.45;4.40;;;;;;;;;;5112424;28;20047;-72
2023/11/13 10:37:10;;;;;;;12.63;4.45;;;20.80;98.90;;;;;;5112320;28;20046;-72
2023/11/13 10:40:27;;;;;;;14.80;4.68;;;22.00;98.80;;;;;;5111275;28;20062;-71
2023/11/13 10:43:32;;;;;;;9.73;4.97;;;20.80;98.10;;;;;;5112296;28;20047;-71
2023/11/13 10:46:37;;;;;;;10.68;5.78;;;;;;;;;;5111963;28;20644;-72
2023/11/13 10:49:41;;;;;;;15.50;9.20;;;;;;;;;;5112089;28;20403;-73
2023/11/13 10:52:49;;;;;;;17.20;9.35;;;20.70;98.50;;;;;;5111914;28;20058;-71
2023/11/13 10:55:54;;;;;;;17.08;8.60;;;20.50;98.20;;;;;;5111750;28;20093;-70
2023/11/13 10:59:00;;;;;;;13.18;7.55;;;;;;;;;;5112093;28;20051;-71
2023/11/13 11:02:08;;;;;;;16.98;8.52;;;20.40;98.60;;;;;;5111914;28;20050;-70
2023/11/13 11:05:22;;;;;;;10.73;5.60;;;20.40;98.50;;;;;;5111656;28;20387;-70
2023/11/13 11:08:27;;;;;;;16.10;6.30;;;;;;;;;;5111591;28;20034;-72
2023/11/13 11:11:34;;;;;;;12.77;5.45;;;20.20;98.50;;;;;;5110391;28;20063;-71
2023/11/13 11:15:05;;;;;;;14.98;5.38;;;20.30;98.90;;;;;;5111549;28;20105;-72
2023/11/13 11:18:32;;;;;;;12.55;3.65;;;20.10;98.30;;;;;;5111346;28;20042;-72
2023/11/13 11:21:36;;;;;;;11.23;3.30;;;;;;;;;;5111181;28;20039;-72
2023/11/13 11:25:11;;;;;;;9.32;3.60;;;19.90;98.50;;;;;;5111171;28;20046;-72
2023/11/13 11:28:44;;;;;;;9.27;2.90;;;20.20;98.40;;;;;;5111496;28;20046;-72
2023/11/13 11:31:48;;;;;;;13.43;2.72;;;;;;;;;;5111092;28;20055;-71
2023/11/13 11:35:04;;;;;;;8.18;2.83;;;19.80;97.60;;;;;;5111567;28;20403;-71
2023/11/13 11:38:22;;;;;;;14.13;3.78;;;19.80;97.70;;;;;;5111026;28;20067;-72
2023/11/13 11:41:41;;;;;;;7.75;2.30;;;19.70;97.90;;;;;;5111219;28;20047;-72
2023/11/13 11:44:45;;;;;;;8.38;2.80;;;19.80;98.00;;;;;;5110785;28;20034;-71
2023/11/13 11:47:53;;;;;;;11.43;5.40;;;19.70;98.10;;;;;;5111441;28;20049;-71
2023/11/13 11:51:06;;;;;;;10.93;3.38;;;19.80;98.10;;;;;;5111028;28;20046;-72
2023/11/13 11:54:13;;;;;;;12.02;3.47;;;19.70;98.20;;;;;;5113001;28;20417;-75
2023/11/13 11:57:17;;;;;;;8.68;4.50;;;;;;;;;;5115273;28;20034;-73
2023/11/13 12:00:23;;;;;;;8.98;3.80;;;19.70;98.50;;;;;;5115362;28;20400;-72
2023/11/13 12:03:28;;;;;;;7.90;3.35;;;19.00;98.30;;;;;;5115193;28;20058;-73
2023/11/13 12:06:33;;;;;;;10.13;3.30;;;20.40;98.60;;;;;;5114994;28;20047;-73
2023/11/13 12:09:42;;;;;;;13.65;3.70;;;19.70;98.50;;;;;;5114894;28;20058;-72
2023/11/13 12:12:47;;;;;;;10.18;3.33;;;19.80;98.70;;;;;;5115028;28;20070;-73
2023/11/13 12:15:54;;;;;;;9.90;3.55;;;23.00;99.30;;;;;;5114819;28;20047;-72
2023/11/13 12:18:58;;;;;;;10.43;3.30;;;;;;;;;;5114956;28;20054;-72
2023/11/13 12:22:03;;;;;;;12.23;3.47;;;20.70;98.80;;;;;;5114971;28;20593;-72
2023/11/13 12:25:09;;;;;;;7.65;2.65;;;19.70;98.50;;;;;;5114968;28;20050;-72
2023/11/13 12:28:13;;;;;;;11.20;3.15;;;;;;;;;;5114659;28;20034;-72
2023/11/13 12:31:19;;;;;;;10.50;3.20;;;19.60;98.60;;;;;;5114353;28;20071;-72
2023/11/13 12:34:23;;;;;;;8.35;2.83;;;;;;;;;;5114917;28;20491;-72
2023/11/13 12:37:28;;;;;;;7.13;3.05;;;;;;;;;;5114463;28;20043;-73
2023/11/13 12:40:33;;;;;;;8.15;3.15;;;19.70;98.20;;;;;;5112568;28;20468;-71
2023/11/13 12:43:37;;;;;;;11.07;2.88;;;;;;;;;;5113099;28;20392;-72
2023/11/13 12:46:45;;;;;;;9.30;2.88;;;19.50;98.10;;;;;;5113497;28;20368;-72
2023/11/13 12:49:50;;;;;;;12.60;2.92;;;19.50;98.00;;;;;;5113693;28;20070;-72
2023/11/13 12:52:55;;;;;;;6.50;2.40;;;;;;;;;;5113343;28;20502;-71
2023/11/13 12:55:59;;;;;;;6.82;2.05;;;;;;;;;;5113917;28;20039;-71
2023/11/13 12:59:04;;;;;;;7.68;2.50;;;;;;;;;;5114270;28;20028;-71
2023/11/13 13:02:09;;;;;;;5.20;2.15;;;;;;;;;;5113901;28;20031;-72
2023/11/13 13:05:16;;;;;;;9.05;2.63;;;19.30;97.90;;;;;;5113695;28;20051;-72
2023/11/13 13:08:23;;;;;;;9.45;2.88;;;;;;;;;;5113723;28;20031;-72
2023/11/13 13:11:28;;;;;;;7.55;2.10;;;;;;;;;;5113665;28;20044;-72
2023/11/13 13:14:33;;;;;;;11.65;2.33;;;;;;;;;;5111324;28;20036;-72
2023/11/13 13:17:38;;;;;;;8.23;2.35;;;;;;;;;;5113022;28;20054;-74
2023/11/13 13:20:43;;;;;;;8.98;2.50;;;;;;;;;;5113201;28;20035;-74
2023/11/13 13:23:47;;;;;;;7.75;3.17;;;;;;;;;;5112946;28;20036;-71
2023/11/13 13:26:51;;;;;;;7.60;2.55;;;;;;;;;;5113177;28;20404;-71
2023/11/13 13:29:56;;;;;;;8.43;2.53;;;;;;;;;;5113278;28;20059;-72
2023/11/13 13:33:01;;;;;;;9.55;2.80;;;;;;;;;;5072771;28;20048;-72
2023/11/13 13:36:06;;;;;;;6.40;2.15;;;;;;;;;;5072833;28;20136;-72
2023/11/13 13:39:14;;;;;;;7.75;2.22;;;;;;;;;;5072637;28;20473;-72
2023/11/13 13:42:19;;;;;;;11.43;2.65;;;;;;;;;;5073031;28;20148;-72
2023/11/13 13:45:25;;;;;;;9.93;3.10;;;;;;;;;;5072878;28;20043;-72
2023/11/13 13:48:31;;;;;;;8.45;2.78;;;;;;;;;;5072810;28;20033;-72
2023/11/13 13:51:37;;;;;;;6.47;2.03;;;;;;;;;;5072681;28;20052;-72
2023/11/13 13:54:41;;;;;;;13.40;2.70;;;;;;;;;;5072633;28;20036;-71
2023/11/13 13:57:46;;;;;;;9.27;2.38;;;;;;;;;;5072638;28;20051;-71
2023/11/13 14:00:52;;;;;;;13.57;3.10;;;;;;;;;;5072314;28;20040;-73
2023/11/13 14:03:57;;;;;;;10.48;2.95;;;;;;;;;;5070089;28;20055;-70
2023/11/13 14:07:02;;;;;;;14.90;2.78;;;;;;;;;;5070693;28;20047;-70
2023/11/13 14:10:07;;;;;;;8.98;3.28;;;;;;;;;;5071311;28;20047;-70
2023/11/13 14:13:12;;;;;;;10.52;2.50;;;;;;;;;;5071068;28;20064;-69
2023/11/13 14:16:16;;;;;;;9.18;2.60;;;;;;;;;;5071008;28;20044;-71
2023/11/13 14:19:20;;;;;;;7.35;2.33;;;;;;;;;;5072227;28;20468;-71
2023/11/13 14:22:26;;;;;;;6.75;1.90;;;;;;;;;;5072322;28;20037;-72
2023/11/13 14:25:31;;;;;;;5.95;2.22;;;;;;;;;;5071700;28;20041;-71
2023/11/13 14:28:35;;;;;;;11.30;3.22;;;;;;;;;;5071802;28;20048;-71
2023/11/13 14:31:40;;;;;;;10.82;2.63;;;;;;;;;;5090423;28;20074;-73
2023/11/13 14:34:47;;;;;;;7.68;2.65;;;18.90;98.60;;;;;;5112468;28;20050;-71
2023/11/13 14:37:55;;;;;;;11.18;2.95;;;18.80;98.80;;;;;;5112691;28;20043;-73
2023/11/13 14:41:00;;;;;;;11.20;3.28;;;;;;;;;;5112069;28;20051;-73
2023/11/13 14:44:05;;;;;;;8.27;2.58;;;;;;;;;;5111798;28;20491;-72
2023/11/13 14:47:09;;;;;;;9.45;3.85;;;;;;;;;;5111354;28;20039;-73
2023/11/13 14:50:18;;;;;;;12.98;3.03;;;18.70;99.60;;;;;;5112126;28;20035;-73
2023/11/13 14:53:22;;;;;;;6.20;2.58;;;;;;;;;;5112343;28;20514;-72
2023/11/13 14:56:26;;;;;;;5.68;2.17;;;;;;;;;;5111641;28;20027;-73
2023/11/13 14:59:30;;;;;;;7.55;2.63;;;;;;;;;;5113775;28;20052;-72
2023/11/13 15:02:35;;;;;;;8.43;2.47;;;;;;;;;;5111936;28;20478;-72
2023/11/13 15:05:40;;;;;;;8.82;2.63;;;;;;;;;;5112326;28;20487;-72
2023/11/13 15:08:45;;;;;;;19.00;4.05;;;;;;;;;;5111992;28;20095;-72
2023/11/13 15:11:50;;;;;;;10.02;2.72;;;;;;;;;;5111667;28;20051;-72
2023/11/13 15:15:00;;;;;;;9.88;2.38;;;;;;;;;;5111531;28;20039;-72
2023/11/13 15:18:04;;;;;;;12.38;2.70;;;;;;;;;;5110486;28;20035;-71
2023/11/13 15:21:09;;;;;;;14.52;3.45;;;;;;;;;;5111429;28;20541;-71
2023/11/13 15:24:13;;;;;;;13.40;3.45;;;;;;;;;;5110703;28;20043;-70
2023/11/13 15:27:19;;;;;;;12.85;3.00;;;;;;;;;;5111186;28;20046;-72
2023/11/13 15:30:27;;;;;;;7.43;2.88;;;;;;;;;;5111407;28;20507;-73
2023/11/13 15:33:31;;;;;;;17.10;4.18;;;;;;;;;;5110791;28;20051;-71
2023/11/13 15:36:35;;;;;;;13.73;3.70;;;;;;;;;;5111173;28;20055;-70
2023/11/13 15:39:39;;;;;;;19.38;4.80;;;;;;;;;;5111335;28;20046;-70
2023/11/13 15:42:44;;;;;;;13.23;3.17;;;;;;;;;;5111443;28;20042;-71
2023/11/13 15:45:49;;;;;;;14.75;4.45;;;;;;;;;;5111003;28;20039;-70
2023/11/13 15:48:53;;;;;;;19.67;4.50;;;;;;;;;;5110703;28;20047;-69
2023/11/13 15:51:57;;;;;;;19.25;4.38;;;;;;;;;;5110962;28;20047;-69
2023/11/13 15:55:02;;;;;;;25.15;4.78;;;;;;;;;;5110803;28;20042;-69
2023/11/13 15:58:07;;;;;;;16.25;4.25;;;;;;;;;;5110841;28;20043;-70
2023/11/13 16:01:13;;;;;;;17.65;3.88;;;;;;;;;;5110298;28;20059;-70
2023/11/13 16:04:17;;;;;;;15.75;3.80;;;;;;;;;;5111142;28;20042;-70
2023/11/13 16:07:22;;;;;;;21.70;5.13;;;;;;;;;;5111001;28;20050;-70
2023/11/13 16:10:26;;;;;;;22.27;4.90;;;;;;;;;;5110606;28;20046;-70
2023/11/13 16:13:30;;;;;;;24.98;4.95;;;;;;;;;;5110736;28;20051;-70
2023/11/13 16:16:35;;;;;;;19.38;5.05;;;;;;;;;;5110688;28;20042;-70
2023/11/13 16:19:40;;;;;;;29.45;5.63;;;;;;;;;;5110556;28;20051;-70
2023/11/13 16:22:49;;;;;;;23.60;5.60;;;;;;;;;;5110728;28;20050;-71
2023/11/13 16:25:56;;;;;;;20.05;6.18;;;;;;;;;;5110791;28;20215;-70
2023/11/13 16:29:00;;;;;;;22.85;5.28;;;;;;;;;;5110062;28;20042;-70
2023/11/13 16:32:05;;;;;;;18.50;6.22;;;;;;;;;;5110438;28;20050;-70
2023/11/13 16:35:10;;;;;;;19.13;6.60;;;;;;;;;;5110908;28;20046;-70
2023/11/13 16:38:15;;;;;;;20.02;8.38;;;;;;;;;;5110721;28;20047;-70
2023/11/13 16:41:23;;;;;;;20.83;8.73;;;18.80;99.90;;;;;;5113757;28;20514;-70
2023/11/13 16:44:27;;;;;;;22.38;8.75;;;;;;;;;;5114509;28;20055;-69
2023/11/13 16:47:32;;;;;;;20.67;9.45;;;;;;;;;;5114375;28;20070;-69
2023/11/13 16:50:39;;;;;;;25.42;8.98;;;;;;;;;;5114298;28;20605;-69
2023/11/13 16:53:43;;;;;;;20.80;9.95;;;;;;;;;;5114042;28;20153;-69
2023/11/13 16:56:50;;;;;;;27.50;11.77;;;;;;;;;;5114226;28;20513;-69
2023/11/13 16:59:55;;;;;;;24.52;12.13;;;;;;;;;;5113774;28;20499;-69
2023/11/13 17:02:59;;;;;;;29.95;12.40;;;;;;;;;;5114267;28;20411;-71
2023/11/13 17:06:05;;;;;;;29.27;11.88;;;;;;;;;;5114189;28;20066;-70
2023/11/13 17:09:14;;;;;;;34.95;12.40;;;;;;;;;;5113571;28;20042;-70
2023/11/13 17:12:20;;;;;;;31.83;13.00;;;;;;;;;;5113805;28;20541;-70
2023/11/13 17:15:24;;;;;;;20.33;10.20;;;;;;;;;;5113850;28;20042;-71
2023/11/13 17:18:29;;;;;;;22.73;11.02;;;;;;;;;;5113526;28;20513;-70
2023/11/13 17:21:33;;;;;;;32.80;17.48;;;;;;;;;;5113764;28;20411;-70
2023/11/13 17:24:38;;;;;;;46.90;22.50;;;;;;;;;;5113715;28;20042;-70
2023/11/13 17:27:45;;;;;;;40.75;17.73;;;;;;;;;;5113558;28;20054;-70
2023/11/13 17:30:49;;;;;;;35.95;13.32;;;;;;;;;;5113296;28;20046;-70
2023/11/13 17:33:53;;;;;;;33.65;13.70;;;;;;;;;;5113765;28;20046;-70
2023/11/13 17:36:58;;;;;;;34.72;12.75;;;;;;;;;;5113550;28;20051;-70
2023/11/13 17:40:05;;;;;;;36.58;12.88;;;;;;;;;;5113512;28;20058;-70
2023/11/13 17:43:10;;;;;;;23.40;12.55;;;;;;;;;;5113501;28;20046;-70